Meteo Giornale » Osservazioni meteo Stati Uniti (USA) » McAllen Miller
ore: 07:53 - Osservazioni Meteo McAllen Miller
Lat. 26° 10' N Lon. 98° 14' W Alt. 32 metri s.l.m.
27 °C
Sereno
Temp. 24 Ore
27 °C
40 °C
Sud/Sud-Est
9.3 Km/h
Dew point 24 °C
Umidità 83 %
Visibilità 10 Km
Il sole sorge alle ore 07:13
Il sole tramonta alle ore 19:52
| Data e Ora | Cielo e Fenomeni | T °C | DP °C | Um. % | Pres. hPa | Vis. km | Vento km/h | |
|---|---|---|---|---|---|---|---|---|
| Oggi h: 07:53 | Sereno | 27 | 24 | 83 | 1014 | 10 | S/SE 9.3 | |
| Oggi h: 06:53 | Sereno | 27 | 24 | 83 | 1014 | 10 | SE 14.8 | |
| Oggi h: 06:00 | Sereno | 27 | 24 | 83 | 1014 | 10 | S/SE 11.1 | |
| Oggi h: 05:53 | Sereno | 27 | 24 | 83 | 1014 | 10 | S/SE 11.1 | |
| Oggi h: 04:53 | Sereno | 27 | 24 | 83 | 1014 | 10 | S/SE 13 | |
| Oggi h: 03:53 | Sereno | 28 | 24 | 78 | 1014 | 10 | S/SE 9.3 | |
| Oggi h: 02:53 | Sereno | 28 | 24 | 78 | 1014 | 10 | S/SE 11.1 | |
| Oggi h: 01:53 | Sereno | 28 | 24 | 78 | 1014 | 10 | S/SE 13 | |
| Oggi h: 00:53 | Sereno | 29 | 24 | 74 | 1014 | 10 | SE 18.5 | |
| Ieri h: 23:53 | Poco Nuvoloso | 29 | 24 | 74 | 1015 | 10 | SE 18.5 | |
| Ieri h: 22:53 | Sereno | 29 | 24 | 74 | 1015 | 10 | SE 22.2 | |
| Ieri h: 21:53 | Sereno | 31 | 23 | 62 | 1014 | 10 | E/SE 25.9 | |
| Ieri h: 20:53 | Sereno | 32 | 22 | 55 | 1012 | 10 | SE 27.8 | |
| Ieri h: 19:53 | Sereno | 33 | 21 | 49 | 1011 | 10 | E/SE 37 | |
| Ieri h: 18:53 | Sereno | 36 | 20 | 39 | 1010 | 10 | SE 38.8 | |
| Ieri h: 17:53 | Sereno | 38 | 18 | 31 | 1010 | 10 | SE 31.5 | |
| Ieri h: 16:53 | Sereno | 39 | 19 | 31 | 1010 | 10 | SE 33.3 | |
| Ieri h: 15:53 | Sereno | 40 | 17 | 26 | 1011 | 10 | E/SE 20.3 | |
| Ieri h: 14:53 | Sereno | 40 | 19 | 29 | 1012 | 10 | E/SE 14.8 | |
| Ieri h: 13:53 | Sereno | 39 | 19 | 31 | 1013 | 10 | S/SE 24 | |
| Ieri h: 12:53 | Sereno | 38 | 20 | 35 | 1014 | 10 | S/SE 24 | |
| Ieri h: 11:53 | Sereno | 36 | 21 | 41 | 1014 | 10 | S/SE 24 | |
| Ieri h: 10:53 | Sereno | 34 | 22 | 49 | 1014 | 10 | S 24 | |
| Ieri h: 09:53 | Sereno | 31 | 24 | 66 | 1015 | 10 | S/SE 20.3 | |
| Ieri h: 08:53 | Sereno | 29 | 24 | 74 | 1014 | 10 | S/SE 18.5 | |



